sensor_id;sensor_type;location;lat;lon;timestamp;P1;durP1;ratioP1;P2;durP2;ratioP2
14599;SDS011;7386;45.586;12.854;2023-03-01T00:00:03;21.60;;;14.37;;
14599;SDS011;7386;45.586;12.854;2023-03-01T00:02:33;20.23;;;13.80;;
14599;SDS011;7386;45.586;12.854;2023-03-01T00:05:01;21.70;;;13.27;;
14599;SDS011;7386;45.586;12.854;2023-03-01T00:07:30;19.37;;;14.10;;
14599;SDS011;7386;45.586;12.854;2023-03-01T00:09:58;21.20;;;13.90;;
14599;SDS011;7386;45.586;12.854;2023-03-01T00:12:27;20.40;;;13.67;;
14599;SDS011;7386;45.586;12.854;2023-03-01T00:14:55;20.33;;;13.43;;
14599;SDS011;7386;45.586;12.854;2023-03-01T00:17:26;19.17;;;13.87;;
14599;SDS011;7386;45.586;12.854;2023-03-01T00:19:55;22.17;;;14.83;;
14599;SDS011;7386;45.586;12.854;2023-03-01T00:22:24;20.73;;;14.03;;
14599;SDS011;7386;45.586;12.854;2023-03-01T00:24:52;21.07;;;14.23;;
14599;SDS011;7386;45.586;12.854;2023-03-01T00:27:20;20.40;;;14.40;;
14599;SDS011;7386;45.586;12.854;2023-03-01T00:29:49;21.90;;;14.10;;
14599;SDS011;7386;45.586;12.854;2023-03-01T00:32:17;21.60;;;13.73;;
14599;SDS011;7386;45.586;12.854;2023-03-01T00:34:47;19.80;;;13.57;;
14599;SDS011;7386;45.586;12.854;2023-03-01T00:37:21;20.53;;;11.73;;
14599;SDS011;7386;45.586;12.854;2023-03-01T00:39:50;20.60;;;14.03;;
14599;SDS011;7386;45.586;12.854;2023-03-01T00:42:18;21.13;;;13.60;;
14599;SDS011;7386;45.586;12.854;2023-03-01T00:44:48;18.43;;;13.47;;
14599;SDS011;7386;45.586;12.854;2023-03-01T00:47:16;20.87;;;14.23;;
14599;SDS011;7386;45.586;12.854;2023-03-01T00:49:45;21.07;;;14.03;;
14599;SDS011;7386;45.586;12.854;2023-03-01T00:52:14;20.60;;;14.13;;
14599;SDS011;7386;45.586;12.854;2023-03-01T00:54:43;19.07;;;12.83;;
14599;SDS011;7386;45.586;12.854;2023-03-01T00:57:11;21.10;;;14.20;;
14599;SDS011;7386;45.586;12.854;2023-03-01T00:59:40;18.87;;;13.87;;
14599;SDS011;7386;45.586;12.854;2023-03-01T01:02:08;24.97;;;15.03;;
14599;SDS011;7386;45.586;12.854;2023-03-01T01:04:37;20.13;;;14.30;;
14599;SDS011;7386;45.586;12.854;2023-03-01T01:07:05;19.23;;;13.47;;
14599;SDS011;7386;45.586;12.854;2023-03-01T01:09:35;19.93;;;13.77;;
14599;SDS011;7386;45.586;12.854;2023-03-01T01:12:04;21.60;;;14.03;;
14599;SDS011;7386;45.586;12.854;2023-03-01T01:14:33;22.20;;;15.10;;
14599;SDS011;7386;45.586;12.854;2023-03-01T01:17:01;20.83;;;12.20;;
14599;SDS011;7386;45.586;12.854;2023-03-01T01:19:29;23.07;;;14.60;;
14599;SDS011;7386;45.586;12.854;2023-03-01T01:21:58;24.80;;;15.13;;
14599;SDS011;7386;45.586;12.854;2023-03-01T01:24:27;21.00;;;14.17;;
14599;SDS011;7386;45.586;12.854;2023-03-01T01:26:57;19.63;;;12.70;;
14599;SDS011;7386;45.586;12.854;2023-03-01T01:29:26;21.27;;;14.60;;
14599;SDS011;7386;45.586;12.854;2023-03-01T01:31:54;20.00;;;14.60;;
14599;SDS011;7386;45.586;12.854;2023-03-01T01:34:23;20.70;;;14.70;;
14599;SDS011;7386;45.586;12.854;2023-03-01T01:36:52;22.80;;;14.23;;
14599;SDS011;7386;45.586;12.854;2023-03-01T01:39:21;21.27;;;14.00;;
14599;SDS011;7386;45.586;12.854;2023-03-01T01:41:49;19.87;;;13.23;;
14599;SDS011;7386;45.586;12.854;2023-03-01T01:44:20;21.90;;;14.70;;
14599;SDS011;7386;45.586;12.854;2023-03-01T01:46:50;19.27;;;13.53;;
14599;SDS011;7386;45.586;12.854;2023-03-01T01:49:23;19.07;;;13.00;;
14599;SDS011;7386;45.586;12.854;2023-03-01T01:51:55;20.77;;;14.17;;
14599;SDS011;7386;45.586;12.854;2023-03-01T01:54:25;18.23;;;13.17;;
14599;SDS011;7386;45.586;12.854;2023-03-01T01:56:56;19.17;;;13.33;;
14599;SDS011;7386;45.586;12.854;2023-03-01T01:59:26;20.97;;;12.40;;
14599;SDS011;7386;45.586;12.854;2023-03-01T02:01:56;21.50;;;14.40;;
14599;SDS011;7386;45.586;12.854;2023-03-01T02:04:26;20.37;;;13.37;;
14599;SDS011;7386;45.586;12.854;2023-03-01T02:06:58;20.67;;;13.13;;
14599;SDS011;7386;45.586;12.854;2023-03-01T02:09:29;21.67;;;13.60;;
14599;SDS011;7386;45.586;12.854;2023-03-01T02:11:58;19.63;;;13.37;;
14599;SDS011;7386;45.586;12.854;2023-03-01T02:14:28;19.37;;;13.10;;
14599;SDS011;7386;45.586;12.854;2023-03-01T02:16:57;19.13;;;13.70;;
14599;SDS011;7386;45.586;12.854;2023-03-01T02:19:31;19.83;;;14.10;;
14599;SDS011;7386;45.586;12.854;2023-03-01T02:22:03;18.73;;;12.33;;
14599;SDS011;7386;45.586;12.854;2023-03-01T02:24:36;19.07;;;13.33;;
14599;SDS011;7386;45.586;12.854;2023-03-01T02:27:10;22.00;;;14.67;;
14599;SDS011;7386;45.586;12.854;2023-03-01T02:29:40;20.47;;;14.13;;
14599;SDS011;7386;45.586;12.854;2023-03-01T02:32:10;19.23;;;13.83;;
14599;SDS011;7386;45.586;12.854;2023-03-01T02:34:39;22.10;;;14.43;;
14599;SDS011;7386;45.586;12.854;2023-03-01T02:37:08;21.67;;;13.90;;
14599;SDS011;7386;45.586;12.854;2023-03-01T02:39:39;19.43;;;13.70;;
14599;SDS011;7386;45.586;12.854;2023-03-01T02:42:09;18.47;;;12.63;;
14599;SDS011;7386;45.586;12.854;2023-03-01T02:44:39;21.13;;;13.67;;
14599;SDS011;7386;45.586;12.854;2023-03-01T02:47:08;20.80;;;13.03;;
14599;SDS011;7386;45.586;12.854;2023-03-01T02:49:36;18.73;;;12.80;;
14599;SDS011;7386;45.586;12.854;2023-03-01T02:52:13;19.03;;;12.73;;
14599;SDS011;7386;45.586;12.854;2023-03-01T02:54:46;17.60;;;12.10;;
14599;SDS011;7386;45.586;12.854;2023-03-01T02:57:15;18.70;;;13.37;;
14599;SDS011;7386;45.586;12.854;2023-03-01T02:59:45;18.03;;;12.53;;
14599;SDS011;7386;45.586;12.854;2023-03-01T03:02:18;20.40;;;13.40;;
14599;SDS011;7386;45.586;12.854;2023-03-01T03:05:06;20.87;;;13.47;;
14599;SDS011;7386;45.586;12.854;2023-03-01T03:07:35;18.33;;;12.23;;
14599;SDS011;7386;45.586;12.854;2023-03-01T03:10:05;18.87;;;13.07;;
14599;SDS011;7386;45.586;12.854;2023-03-01T03:12:34;17.50;;;12.47;;
14599;SDS011;7386;45.586;12.854;2023-03-01T03:15:05;17.03;;;12.57;;
14599;SDS011;7386;45.586;12.854;2023-03-01T03:17:35;18.10;;;12.90;;
14599;SDS011;7386;45.586;12.854;2023-03-01T03:20:04;16.97;;;12.40;;
14599;SDS011;7386;45.586;12.854;2023-03-01T03:22:37;16.53;;;11.30;;
14599;SDS011;7386;45.586;12.854;2023-03-01T03:25:06;18.77;;;13.27;;
14599;SDS011;7386;45.586;12.854;2023-03-01T03:27:37;19.20;;;12.83;;
14599;SDS011;7386;45.586;12.854;2023-03-01T03:30:07;20.93;;;12.40;;
14599;SDS011;7386;45.586;12.854;2023-03-01T03:32:38;20.27;;;13.20;;
14599;SDS011;7386;45.586;12.854;2023-03-01T03:35:07;18.80;;;12.53;;
14599;SDS011;7386;45.586;12.854;2023-03-01T03:37:36;20.53;;;13.70;;
14599;SDS011;7386;45.586;12.854;2023-03-01T03:40:22;18.97;;;12.30;;
14599;SDS011;7386;45.586;12.854;2023-03-01T03:42:51;19.30;;;12.50;;
14599;SDS011;7386;45.586;12.854;2023-03-01T03:45:21;17.83;;;12.27;;
14599;SDS011;7386;45.586;12.854;2023-03-01T03:47:49;18.63;;;11.90;;
14599;SDS011;7386;45.586;12.854;2023-03-01T03:50:18;16.63;;;11.57;;
14599;SDS011;7386;45.586;12.854;2023-03-01T03:52:46;24.90;;;13.43;;
14599;SDS011;7386;45.586;12.854;2023-03-01T03:55:14;18.50;;;13.00;;
14599;SDS011;7386;45.586;12.854;2023-03-01T03:57:46;18.70;;;12.70;;
14599;SDS011;7386;45.586;12.854;2023-03-01T04:00:18;19.13;;;13.07;;
14599;SDS011;7386;45.586;12.854;2023-03-01T04:02:48;17.47;;;12.80;;
14599;SDS011;7386;45.586;12.854;2023-03-01T04:05:17;19.40;;;12.67;;
14599;SDS011;7386;45.586;12.854;2023-03-01T04:07:46;19.13;;;12.83;;
14599;SDS011;7386;45.586;12.854;2023-03-01T04:10:15;19.70;;;12.87;;
14599;SDS011;7386;45.586;12.854;2023-03-01T04:12:45;19.87;;;12.50;;
14599;SDS011;7386;45.586;12.854;2023-03-01T04:15:13;22.77;;;14.03;;
14599;SDS011;7386;45.586;12.854;2023-03-01T04:17:42;18.53;;;12.57;;
14599;SDS011;7386;45.586;12.854;2023-03-01T04:20:13;18.27;;;12.60;;
14599;SDS011;7386;45.586;12.854;2023-03-01T04:22:44;21.97;;;13.07;;
14599;SDS011;7386;45.586;12.854;2023-03-01T04:25:13;18.63;;;12.53;;
14599;SDS011;7386;45.586;12.854;2023-03-01T04:27:42;16.53;;;10.70;;
14599;SDS011;7386;45.586;12.854;2023-03-01T04:30:10;20.73;;;13.30;;
14599;SDS011;7386;45.586;12.854;2023-03-01T04:32:39;17.87;;;12.50;;
14599;SDS011;7386;45.586;12.854;2023-03-01T04:35:08;18.90;;;11.63;;
14599;SDS011;7386;45.586;12.854;2023-03-01T04:37:37;18.30;;;11.63;;
14599;SDS011;7386;45.586;12.854;2023-03-01T04:40:08;18.17;;;12.80;;
14599;SDS011;7386;45.586;12.854;2023-03-01T04:42:42;18.50;;;12.43;;
14599;SDS011;7386;45.586;12.854;2023-03-01T04:45:11;18.23;;;12.63;;
14599;SDS011;7386;45.586;12.854;2023-03-01T04:47:40;17.33;;;11.97;;
14599;SDS011;7386;45.586;12.854;2023-03-01T04:50:09;17.07;;;12.43;;
14599;SDS011;7386;45.586;12.854;2023-03-01T04:52:39;19.93;;;13.20;;
14599;SDS011;7386;45.586;12.854;2023-03-01T04:55:08;20.90;;;12.60;;
14599;SDS011;7386;45.586;12.854;2023-03-01T04:57:37;20.77;;;13.17;;
14599;SDS011;7386;45.586;12.854;2023-03-01T05:00:06;19.37;;;12.97;;
14599;SDS011;7386;45.586;12.854;2023-03-01T05:02:47;18.77;;;12.90;;
14599;SDS011;7386;45.586;12.854;2023-03-01T05:05:20;18.13;;;12.73;;
14599;SDS011;7386;45.586;12.854;2023-03-01T05:07:56;19.23;;;11.80;;
14599;SDS011;7386;45.586;12.854;2023-03-01T05:10:25;22.07;;;13.90;;
14599;SDS011;7386;45.586;12.854;2023-03-01T05:12:55;19.13;;;12.40;;
14599;SDS011;7386;45.586;12.854;2023-03-01T05:15:24;19.10;;;12.90;;
14599;SDS011;7386;45.586;12.854;2023-03-01T05:17:54;20.37;;;13.27;;
14599;SDS011;7386;45.586;12.854;2023-03-01T05:20:25;20.80;;;12.77;;
14599;SDS011;7386;45.586;12.854;2023-03-01T05:22:56;22.80;;;14.23;;
14599;SDS011;7386;45.586;12.854;2023-03-01T05:25:26;18.83;;;12.57;;
14599;SDS011;7386;45.586;12.854;2023-03-01T05:27:59;18.77;;;12.27;;
14599;SDS011;7386;45.586;12.854;2023-03-01T05:30:31;22.27;;;12.67;;
14599;SDS011;7386;45.586;12.854;2023-03-01T05:33:00;18.70;;;12.30;;
14599;SDS011;7386;45.586;12.854;2023-03-01T05:35:28;18.03;;;11.67;;
14599;SDS011;7386;45.586;12.854;2023-03-01T05:37:59;17.97;;;12.07;;
14599;SDS011;7386;45.586;12.854;2023-03-01T05:40:28;18.63;;;12.30;;
14599;SDS011;7386;45.586;12.854;2023-03-01T05:42:57;17.30;;;11.70;;
14599;SDS011;7386;45.586;12.854;2023-03-01T05:45:26;17.07;;;11.53;;
14599;SDS011;7386;45.586;12.854;2023-03-01T05:47:54;17.67;;;11.70;;
14599;SDS011;7386;45.586;12.854;2023-03-01T05:50:23;20.40;;;12.17;;
14599;SDS011;7386;45.586;12.854;2023-03-01T05:52:56;21.43;;;12.73;;
14599;SDS011;7386;45.586;12.854;2023-03-01T05:55:25;23.07;;;12.97;;
14599;SDS011;7386;45.586;12.854;2023-03-01T05:57:55;24.50;;;12.67;;
14599;SDS011;7386;45.586;12.854;2023-03-01T06:00:25;22.50;;;12.17;;
14599;SDS011;7386;45.586;12.854;2023-03-01T06:02:54;21.57;;;12.13;;
14599;SDS011;7386;45.586;12.854;2023-03-01T06:05:23;19.80;;;11.63;;
14599;SDS011;7386;45.586;12.854;2023-03-01T06:07:51;16.90;;;11.87;;
14599;SDS011;7386;45.586;12.854;2023-03-01T06:10:20;18.70;;;11.70;;
14599;SDS011;7386;45.586;12.854;2023-03-01T06:12:49;18.17;;;11.53;;
14599;SDS011;7386;45.586;12.854;2023-03-01T06:15:20;17.93;;;10.83;;
14599;SDS011;7386;45.586;12.854;2023-03-01T06:17:48;17.90;;;11.27;;
14599;SDS011;7386;45.586;12.854;2023-03-01T06:20:18;15.47;;;10.40;;
14599;SDS011;7386;45.586;12.854;2023-03-01T06:22:46;19.30;;;11.50;;
14599;SDS011;7386;45.586;12.854;2023-03-01T06:25:15;17.23;;;9.77;;
14599;SDS011;7386;45.586;12.854;2023-03-01T06:27:45;19.40;;;11.43;;
14599;SDS011;7386;45.586;12.854;2023-03-01T06:30:15;15.13;;;10.53;;
14599;SDS011;7386;45.586;12.854;2023-03-01T06:32:46;15.47;;;10.83;;
14599;SDS011;7386;45.586;12.854;2023-03-01T06:35:15;22.33;;;12.27;;
14599;SDS011;7386;45.586;12.854;2023-03-01T06:37:44;16.83;;;10.77;;
14599;SDS011;7386;45.586;12.854;2023-03-01T06:40:13;16.63;;;10.73;;
14599;SDS011;7386;45.586;12.854;2023-03-01T06:42:43;15.40;;;9.50;;
14599;SDS011;7386;45.586;12.854;2023-03-01T06:45:12;18.07;;;10.60;;
14599;SDS011;7386;45.586;12.854;2023-03-01T06:47:40;16.97;;;11.20;;
14599;SDS011;7386;45.586;12.854;2023-03-01T06:50:10;17.13;;;11.17;;
14599;SDS011;7386;45.586;12.854;2023-03-01T06:52:39;14.77;;;10.30;;
14599;SDS011;7386;45.586;12.854;2023-03-01T06:55:08;16.17;;;10.00;;
14599;SDS011;7386;45.586;12.854;2023-03-01T06:57:36;16.97;;;10.90;;
14599;SDS011;7386;45.586;12.854;2023-03-01T07:00:05;16.07;;;10.60;;
14599;SDS011;7386;45.586;12.854;2023-03-01T07:02:34;16.57;;;10.97;;
14599;SDS011;7386;45.586;12.854;2023-03-01T07:05:02;17.67;;;11.47;;
14599;SDS011;7386;45.586;12.854;2023-03-01T07:07:32;16.23;;;10.87;;
14599;SDS011;7386;45.586;12.854;2023-03-01T07:10:01;17.83;;;11.60;;
14599;SDS011;7386;45.586;12.854;2023-03-01T07:12:29;21.30;;;12.27;;
14599;SDS011;7386;45.586;12.854;2023-03-01T07:14:58;19.63;;;11.73;;
14599;SDS011;7386;45.586;12.854;2023-03-01T07:17:26;18.17;;;11.10;;
14599;SDS011;7386;45.586;12.854;2023-03-01T07:19:54;22.07;;;12.47;;
14599;SDS011;7386;45.586;12.854;2023-03-01T07:22:23;18.37;;;11.67;;
14599;SDS011;7386;45.586;12.854;2023-03-01T07:24:53;18.80;;;11.87;;
14599;SDS011;7386;45.586;12.854;2023-03-01T07:27:21;17.73;;;11.17;;
14599;SDS011;7386;45.586;12.854;2023-03-01T07:29:50;25.77;;;12.30;;
14599;SDS011;7386;45.586;12.854;2023-03-01T07:32:18;16.60;;;11.30;;
14599;SDS011;7386;45.586;12.854;2023-03-01T07:34:47;21.67;;;11.03;;
14599;SDS011;7386;45.586;12.854;2023-03-01T07:37:15;19.07;;;11.40;;
14599;SDS011;7386;45.586;12.854;2023-03-01T07:39:44;22.23;;;12.07;;
14599;SDS011;7386;45.586;12.854;2023-03-01T07:42:13;16.33;;;11.10;;
14599;SDS011;7386;45.586;12.854;2023-03-01T07:44:42;19.43;;;11.93;;
14599;SDS011;7386;45.586;12.854;2023-03-01T07:47:10;19.77;;;10.87;;
14599;SDS011;7386;45.586;12.854;2023-03-01T07:49:39;17.37;;;11.70;;
14599;SDS011;7386;45.586;12.854;2023-03-01T07:52:09;17.23;;;10.80;;
14599;SDS011;7386;45.586;12.854;2023-03-01T07:54:37;19.27;;;11.70;;
14599;SDS011;7386;45.586;12.854;2023-03-01T07:57:06;17.23;;;10.60;;
14599;SDS011;7386;45.586;12.854;2023-03-01T07:59:35;15.93;;;10.03;;
14599;SDS011;7386;45.586;12.854;2023-03-01T08:02:04;19.83;;;10.50;;
14599;SDS011;7386;45.586;12.854;2023-03-01T08:04:33;20.33;;;10.93;;
14599;SDS011;7386;45.586;12.854;2023-03-01T08:07:04;17.93;;;10.80;;
14599;SDS011;7386;45.586;12.854;2023-03-01T08:09:34;16.17;;;10.40;;
14599;SDS011;7386;45.586;12.854;2023-03-01T08:12:03;16.70;;;9.60;;
14599;SDS011;7386;45.586;12.854;2023-03-01T08:14:32;16.40;;;10.23;;
14599;SDS011;7386;45.586;12.854;2023-03-01T08:17:02;13.93;;;9.80;;
14599;SDS011;7386;45.586;12.854;2023-03-01T08:19:30;15.77;;;10.07;;
14599;SDS011;7386;45.586;12.854;2023-03-01T08:22:00;14.60;;;9.90;;
14599;SDS011;7386;45.586;12.854;2023-03-01T08:24:29;23.37;;;10.77;;
14599;SDS011;7386;45.586;12.854;2023-03-01T08:26:58;16.67;;;10.80;;
14599;SDS011;7386;45.586;12.854;2023-03-01T08:29:26;16.07;;;10.50;;
14599;SDS011;7386;45.586;12.854;2023-03-01T08:31:55;16.60;;;10.63;;
14599;SDS011;7386;45.586;12.854;2023-03-01T08:34:25;16.60;;;10.90;;
14599;SDS011;7386;45.586;12.854;2023-03-01T08:36:53;17.93;;;11.87;;
14599;SDS011;7386;45.586;12.854;2023-03-01T08:39:22;15.20;;;10.07;;
14599;SDS011;7386;45.586;12.854;2023-03-01T08:41:50;17.10;;;11.17;;
14599;SDS011;7386;45.586;12.854;2023-03-01T08:44:19;17.80;;;10.83;;
14599;SDS011;7386;45.586;12.854;2023-03-01T08:46:50;14.70;;;10.27;;
14599;SDS011;7386;45.586;12.854;2023-03-01T08:49:19;16.37;;;10.70;;
14599;SDS011;7386;45.586;12.854;2023-03-01T08:51:49;17.77;;;10.93;;
14599;SDS011;7386;45.586;12.854;2023-03-01T08:54:19;17.43;;;11.33;;
14599;SDS011;7386;45.586;12.854;2023-03-01T08:56:47;19.30;;;11.37;;
14599;SDS011;7386;45.586;12.854;2023-03-01T08:59:16;21.60;;;11.33;;
14599;SDS011;7386;45.586;12.854;2023-03-01T09:01:45;15.37;;;11.03;;
14599;SDS011;7386;45.586;12.854;2023-03-01T09:04:14;17.83;;;10.80;;
14599;SDS011;7386;45.586;12.854;2023-03-01T09:06:43;19.27;;;11.40;;
14599;SDS011;7386;45.586;12.854;2023-03-01T09:09:14;15.90;;;11.20;;
14599;SDS011;7386;45.586;12.854;2023-03-01T09:11:43;13.67;;;9.40;;
14599;SDS011;7386;45.586;12.854;2023-03-01T09:14:12;15.40;;;10.10;;
14599;SDS011;7386;45.586;12.854;2023-03-01T09:16:41;21.40;;;11.23;;
14599;SDS011;7386;45.586;12.854;2023-03-01T09:19:10;16.80;;;9.93;;
14599;SDS011;7386;45.586;12.854;2023-03-01T09:21:38;16.07;;;10.33;;
14599;SDS011;7386;45.586;12.854;2023-03-01T09:24:08;19.53;;;11.23;;
14599;SDS011;7386;45.586;12.854;2023-03-01T09:26:42;17.10;;;11.27;;
14599;SDS011;7386;45.586;12.854;2023-03-01T09:29:15;19.07;;;10.90;;
14599;SDS011;7386;45.586;12.854;2023-03-01T09:31:43;16.20;;;10.60;;
14599;SDS011;7386;45.586;12.854;2023-03-01T09:34:12;17.57;;;10.30;;
14599;SDS011;7386;45.586;12.854;2023-03-01T09:36:42;16.40;;;10.30;;
14599;SDS011;7386;45.586;12.854;2023-03-01T09:39:10;14.63;;;10.60;;
14599;SDS011;7386;45.586;12.854;2023-03-01T09:41:45;16.50;;;10.27;;
14599;SDS011;7386;45.586;12.854;2023-03-01T09:44:18;25.23;;;11.07;;
14599;SDS011;7386;45.586;12.854;2023-03-01T09:46:49;26.80;;;12.83;;
14599;SDS011;7386;45.586;12.854;2023-03-01T09:49:19;30.67;;;13.07;;
14599;SDS011;7386;45.586;12.854;2023-03-01T09:51:53;48.73;;;12.53;;
14599;SDS011;7386;45.586;12.854;2023-03-01T09:54:22;40.40;;;12.47;;
14599;SDS011;7386;45.586;12.854;2023-03-01T09:56:56;52.57;;;11.57;;
14599;SDS011;7386;45.586;12.854;2023-03-01T09:59:28;46.83;;;11.60;;
14599;SDS011;7386;45.586;12.854;2023-03-01T10:02:00;41.87;;;10.80;;
14599;SDS011;7386;45.586;12.854;2023-03-01T10:04:36;57.93;;;13.50;;
14599;SDS011;7386;45.586;12.854;2023-03-01T10:09:55;87.13;;;15.53;;
14599;SDS011;7386;45.586;12.854;2023-03-01T10:12:26;75.43;;;15.97;;
14599;SDS011;7386;45.586;12.854;2023-03-01T10:14:57;43.10;;;13.90;;
14599;SDS011;7386;45.586;12.854;2023-03-01T10:17:30;103.50;;;17.10;;
14599;SDS011;7386;45.586;12.854;2023-03-01T10:20:08;142.80;;;19.17;;
14599;SDS011;7386;45.586;12.854;2023-03-01T10:22:40;108.57;;;15.80;;
14599;SDS011;7386;45.586;12.854;2023-03-01T10:25:13;90.70;;;16.93;;
14599;SDS011;7386;45.586;12.854;2023-03-01T10:27:46;49.20;;;14.63;;
14599;SDS011;7386;45.586;12.854;2023-03-01T10:30:18;61.23;;;14.53;;
14599;SDS011;7386;45.586;12.854;2023-03-01T10:32:48;60.80;;;15.23;;
14599;SDS011;7386;45.586;12.854;2023-03-01T10:35:18;119.00;;;17.80;;
14599;SDS011;7386;45.586;12.854;2023-03-01T10:37:57;112.90;;;17.93;;
14599;SDS011;7386;45.586;12.854;2023-03-01T10:40:25;76.60;;;13.67;;
14599;SDS011;7386;45.586;12.854;2023-03-01T10:42:57;84.20;;;15.43;;
14599;SDS011;7386;45.586;12.854;2023-03-01T10:45:35;55.87;;;14.07;;
14599;SDS011;7386;45.586;12.854;2023-03-01T10:48:11;48.53;;;14.07;;
14599;SDS011;7386;45.586;12.854;2023-03-01T10:50:41;71.80;;;14.30;;
14599;SDS011;7386;45.586;12.854;2023-03-01T10:53:23;69.20;;;13.90;;
14599;SDS011;7386;45.586;12.854;2023-03-01T10:55:56;102.53;;;18.17;;
14599;SDS011;7386;45.586;12.854;2023-03-01T10:58:27;191.43;;;24.20;;
14599;SDS011;7386;45.586;12.854;2023-03-01T11:00:56;147.50;;;21.97;;
14599;SDS011;7386;45.586;12.854;2023-03-01T11:03:26;100.67;;;19.93;;
14599;SDS011;7386;45.586;12.854;2023-03-01T11:05:57;108.07;;;18.80;;
14599;SDS011;7386;45.586;12.854;2023-03-01T11:08:29;90.07;;;16.97;;
14599;SDS011;7386;45.586;12.854;2023-03-01T11:11:10;106.70;;;15.30;;
14599;SDS011;7386;45.586;12.854;2023-03-01T11:13:49;104.60;;;19.00;;
14599;SDS011;7386;45.586;12.854;2023-03-01T11:16:22;94.13;;;16.67;;
14599;SDS011;7386;45.586;12.854;2023-03-01T11:18:58;91.23;;;14.73;;
14599;SDS011;7386;45.586;12.854;2023-03-01T11:21:28;69.10;;;15.17;;
14599;SDS011;7386;45.586;12.854;2023-03-01T11:23:58;62.60;;;15.03;;
14599;SDS011;7386;45.586;12.854;2023-03-01T11:26:28;75.53;;;15.43;;
14599;SDS011;7386;45.586;12.854;2023-03-01T11:29:00;65.53;;;15.50;;
14599;SDS011;7386;45.586;12.854;2023-03-01T11:31:30;51.07;;;13.83;;
14599;SDS011;7386;45.586;12.854;2023-03-01T11:34:01;35.30;;;13.80;;
14599;SDS011;7386;45.586;12.854;2023-03-01T11:36:34;29.70;;;13.40;;
14599;SDS011;7386;45.586;12.854;2023-03-01T11:39:05;36.00;;;13.93;;
14599;SDS011;7386;45.586;12.854;2023-03-01T11:41:39;42.30;;;14.33;;
14599;SDS011;7386;45.586;12.854;2023-03-01T11:44:11;48.73;;;14.37;;
14599;SDS011;7386;45.586;12.854;2023-03-01T11:46:51;41.63;;;13.67;;
14599;SDS011;7386;45.586;12.854;2023-03-01T11:49:28;56.27;;;14.47;;
14599;SDS011;7386;45.586;12.854;2023-03-01T11:52:00;87.83;;;16.87;;
14599;SDS011;7386;45.586;12.854;2023-03-01T11:54:33;102.00;;;18.10;;
14599;SDS011;7386;45.586;12.854;2023-03-01T11:57:07;97.67;;;15.90;;
14599;SDS011;7386;45.586;12.854;2023-03-01T12:02:30;72.20;;;16.50;;
14599;SDS011;7386;45.586;12.854;2023-03-01T12:07:52;98.97;;;15.13;;
14599;SDS011;7386;45.586;12.854;2023-03-01T12:10:23;68.83;;;13.57;;
14599;SDS011;7386;45.586;12.854;2023-03-01T12:12:57;107.33;;;17.40;;
14599;SDS011;7386;45.586;12.854;2023-03-01T12:15:32;108.53;;;20.53;;
14599;SDS011;7386;45.586;12.854;2023-03-01T12:20:54;106.73;;;16.57;;
14599;SDS011;7386;45.586;12.854;2023-03-01T12:23:31;70.93;;;13.00;;
14599;SDS011;7386;45.586;12.854;2023-03-01T12:26:05;78.87;;;15.40;;
14599;SDS011;7386;45.586;12.854;2023-03-01T12:28:48;48.43;;;14.60;;
14599;SDS011;7386;45.586;12.854;2023-03-01T12:34:04;49.47;;;13.83;;
14599;SDS011;7386;45.586;12.854;2023-03-01T12:36:45;40.87;;;15.37;;
14599;SDS011;7386;45.586;12.854;2023-03-01T12:39:32;51.07;;;18.20;;
14599;SDS011;7386;45.586;12.854;2023-03-01T12:42:04;50.27;;;15.03;;
14599;SDS011;7386;45.586;12.854;2023-03-01T12:44:40;66.03;;;13.67;;
14599;SDS011;7386;45.586;12.854;2023-03-01T12:47:18;46.40;;;13.77;;
14599;SDS011;7386;45.586;12.854;2023-03-01T12:49:49;45.57;;;13.37;;
14599;SDS011;7386;45.586;12.854;2023-03-01T12:52:21;57.10;;;14.97;;
14599;SDS011;7386;45.586;12.854;2023-03-01T12:54:51;36.50;;;12.50;;
14599;SDS011;7386;45.586;12.854;2023-03-01T12:57:23;36.63;;;10.87;;
14599;SDS011;7386;45.586;12.854;2023-03-01T12:59:58;31.93;;;9.70;;
14599;SDS011;7386;45.586;12.854;2023-03-01T13:02:30;34.23;;;14.67;;
14599;SDS011;7386;45.586;12.854;2023-03-01T13:05:05;46.50;;;15.43;;
14599;SDS011;7386;45.586;12.854;2023-03-01T13:07:36;39.50;;;13.77;;
14599;SDS011;7386;45.586;12.854;2023-03-01T13:13:01;31.97;;;8.77;;
14599;SDS011;7386;45.586;12.854;2023-03-01T13:15:31;31.63;;;12.60;;
14599;SDS011;7386;45.586;12.854;2023-03-01T13:18:00;49.37;;;13.40;;
14599;SDS011;7386;45.586;12.854;2023-03-01T13:20:31;63.30;;;11.80;;
14599;SDS011;7386;45.586;12.854;2023-03-01T13:23:02;51.23;;;10.37;;
14599;SDS011;7386;45.586;12.854;2023-03-01T13:25:31;34.43;;;11.93;;
14599;SDS011;7386;45.586;12.854;2023-03-01T13:30:55;39.63;;;14.77;;
14599;SDS011;7386;45.586;12.854;2023-03-01T13:33:37;31.43;;;10.10;;
14599;SDS011;7386;45.586;12.854;2023-03-01T13:36:08;39.57;;;10.13;;
14599;SDS011;7386;45.586;12.854;2023-03-01T13:38:46;55.60;;;11.93;;
14599;SDS011;7386;45.586;12.854;2023-03-01T13:41:14;55.33;;;8.70;;
14599;SDS011;7386;45.586;12.854;2023-03-01T13:43:43;54.07;;;12.70;;
14599;SDS011;7386;45.586;12.854;2023-03-01T13:46:15;31.00;;;9.73;;
14599;SDS011;7386;45.586;12.854;2023-03-01T13:48:45;33.77;;;9.27;;
14599;SDS011;7386;45.586;12.854;2023-03-01T13:51:13;46.60;;;10.90;;
14599;SDS011;7386;45.586;12.854;2023-03-01T13:53:43;28.07;;;8.50;;
14599;SDS011;7386;45.586;12.854;2023-03-01T13:56:15;51.50;;;10.43;;
14599;SDS011;7386;45.586;12.854;2023-03-01T13:58:46;60.27;;;11.27;;
14599;SDS011;7386;45.586;12.854;2023-03-01T14:01:26;40.70;;;8.13;;
14599;SDS011;7386;45.586;12.854;2023-03-01T14:03:56;31.57;;;9.77;;
14599;SDS011;7386;45.586;12.854;2023-03-01T14:06:26;28.00;;;9.37;;
14599;SDS011;7386;45.586;12.854;2023-03-01T14:09:01;25.87;;;8.60;;
14599;SDS011;7386;45.586;12.854;2023-03-01T14:14:20;23.10;;;10.27;;
14599;SDS011;7386;45.586;12.854;2023-03-01T14:16:51;15.13;;;7.30;;
14599;SDS011;7386;45.586;12.854;2023-03-01T14:19:23;15.50;;;6.50;;
14599;SDS011;7386;45.586;12.854;2023-03-01T14:22:02;15.20;;;6.00;;
14599;SDS011;7386;45.586;12.854;2023-03-01T14:24:32;19.77;;;11.47;;
14599;SDS011;7386;45.586;12.854;2023-03-01T14:27:09;20.00;;;8.73;;
14599;SDS011;7386;45.586;12.854;2023-03-01T14:29:39;15.47;;;6.80;;
14599;SDS011;7386;45.586;12.854;2023-03-01T14:32:09;19.87;;;9.10;;
14599;SDS011;7386;45.586;12.854;2023-03-01T14:34:42;29.77;;;11.10;;
14599;SDS011;7386;45.586;12.854;2023-03-01T14:37:11;40.90;;;9.13;;
14599;SDS011;7386;45.586;12.854;2023-03-01T14:39:40;41.93;;;9.33;;
14599;SDS011;7386;45.586;12.854;2023-03-01T14:42:08;42.90;;;10.53;;
14599;SDS011;7386;45.586;12.854;2023-03-01T14:44:43;58.43;;;9.53;;
14599;SDS011;7386;45.586;12.854;2023-03-01T14:47:13;37.93;;;7.77;;
14599;SDS011;7386;45.586;12.854;2023-03-01T14:49:43;56.10;;;10.23;;
14599;SDS011;7386;45.586;12.854;2023-03-01T14:52:18;35.33;;;9.43;;
14599;SDS011;7386;45.586;12.854;2023-03-01T14:54:48;37.93;;;7.67;;
14599;SDS011;7386;45.586;12.854;2023-03-01T14:57:19;27.43;;;7.47;;
14599;SDS011;7386;45.586;12.854;2023-03-01T14:59:50;23.27;;;8.33;;
14599;SDS011;7386;45.586;12.854;2023-03-01T15:02:21;23.87;;;9.47;;